Terminal Aerodrome Forecast
Issued by NWS

Home | Current Version | Previous Version | Graphics & Text | Print | Product List | Glossary On
Versions: 1 2 3 4 5 6 7 8 9 10 11 12 13 14 15
978
FTUS43 KMPX 270535
TAFRNH
TAF
KRNH 270535Z 2706/2806 27003KT P6SM SKC
     FM271400 26005KT P6SM BKN200
     FM272000 25008KT P6SM BKN150
     FM280200 21003KT P6SM SCT120 BKN200=

USA.gov is the U.S. government's official web portal to all federal, state and local government web resources and services.